This is the latest recevied weather packets stored in our database for station/object K6CEG. If no packets are shown the sender has not sent any weather packets the latest 10 day(s).
| Time | Temp. | Humidity | Pressure | Rain* | Wind** | Luminosity | Snow |
|---|---|---|---|---|---|---|---|
| 1778360168 | 28.89° C | 45% | 1014.2 hPa | 0 mm | - | 682 W/m² | - |
| 1778359863 | 28.89° C | 44% | 1014.1 hPa | 0 mm | - | 702 W/m² | - |
| 1778359559 | 28.33° C | 45% | 1014.2 hPa | 0 mm | - | 681 W/m² | - |
| 1778359256 | 27.22° C | 47% | 1014.4 hPa | 0 mm | - | 700 W/m² | - |
| 1778358952 | 27.78° C | 46% | 1014.4 hPa | 0 mm | - | 706 W/m² | - |
| 1778358651 | 27.78° C | 46% | 1014.5 hPa | 0 mm | - | 699 W/m² | - |
| 1778358351 | 27.78° C | 47% | 1014.2 hPa | 0 mm | - | 718 W/m² | - |
| 1778358046 | 27.78° C | 46% | 1014.6 hPa | 0 mm | - | 720 W/m² | - |
| 1778357742 | 27.78° C | 46% | 1014.6 hPa | 0 mm | - | 727 W/m² | - |
| 1778357440 | 27.22° C | 48% | 1014.5 hPa | 0 mm | - | 707 W/m² | - |
| 1778357139 | 27.78° C | 46% | 1014.6 hPa | 0 mm | - | 714 W/m² | - |
| 1778356836 | 27.78° C | 46% | 1014.3 hPa | 0 mm | - | 711 W/m² | - |
| 1778356532 | 27.78° C | 47% | 1014.3 hPa | 0 mm | - | 720 W/m² | - |
| 1778356232 | 27.78° C | 47% | 1014.6 hPa | 0 mm | - | 739 W/m² | - |
| 1778355927 | 27.78° C | 47% | 1014.5 hPa | 0 mm | - | 120 W/m² | - |
| 1778355625 | 27.22° C | 47% | 1014.5 hPa | 0 mm | - | 753 W/m² | - |
| 1778355324 | 27.78° C | 47% | 1014.7 hPa | 0 mm | - | 741 W/m² | - |
| 1778355021 | 26.67° C | 49% | 1014.8 hPa | 0 mm | - | 734 W/m² | - |
| 1778354718 | 27.22° C | 48% | 1014.7 hPa | 0 mm | - | 731 W/m² | - |
| 1778354413 | 26.11° C | 49% | 1014.6 hPa | 0 mm | - | 129 W/m² | - |
| 1778354108 | 26.67° C | 51% | 1014.8 hPa | 0 mm | - | 128 W/m² | - |
| 1778353804 | 27.78° C | 48% | 1014.8 hPa | 0 mm | - | 744 W/m² | - |
| 1778353501 | 26.67° C | 50% | 1015.1 hPa | 0 mm | - | 714 W/m² | - |
| 1778353199 | 27.22° C | 50% | 1015.2 hPa | 0 mm | - | 719 W/m² | - |
| 1778352895 | 26.67° C | 49% | 1015.2 hPa | 0 mm | - | 722 W/m² | - |
* Rain latest hour (hover to see other rain measurements)
** Current wind speed in m/s (hover to see current wind gust speed)